sensor_id;sensor_type;location;lat;lon;timestamp;temperature;humidity
35613;DHT22;22054;51.646;7.078;2023-09-19T00:00:46;16.70;99.90
35613;DHT22;22054;51.646;7.078;2023-09-19T00:03:15;16.50;99.90
35613;DHT22;22054;51.646;7.078;2023-09-19T00:05:41;16.90;99.90
35613;DHT22;22054;51.646;7.078;2023-09-19T00:08:10;16.70;99.90
35613;DHT22;22054;51.646;7.078;2023-09-19T00:10:36;16.80;99.90
35613;DHT22;22054;51.646;7.078;2023-09-19T00:13:04;16.90;99.90
35613;DHT22;22054;51.646;7.078;2023-09-19T00:15:35;16.60;99.90
35613;DHT22;22054;51.646;7.078;2023-09-19T00:18:05;16.60;99.90
35613;DHT22;22054;51.646;7.078;2023-09-19T00:20:38;16.60;99.90
35613;DHT22;22054;51.646;7.078;2023-09-19T00:23:04;16.60;99.90
35613;DHT22;22054;51.646;7.078;2023-09-19T00:25:31;16.60;99.90
35613;DHT22;22054;51.646;7.078;2023-09-19T00:27:57;16.40;99.90
35613;DHT22;22054;51.646;7.078;2023-09-19T00:30:23;16.50;99.90
35613;DHT22;22054;51.646;7.078;2023-09-19T00:32:50;16.40;99.90
35613;DHT22;22054;51.646;7.078;2023-09-19T00:35:23;16.40;99.90
35613;DHT22;22054;51.646;7.078;2023-09-19T00:37:49;16.60;99.90
35613;DHT22;22054;51.646;7.078;2023-09-19T00:40:16;16.80;99.90
35613;DHT22;22054;51.646;7.078;2023-09-19T00:42:45;16.40;99.90
35613;DHT22;22054;51.646;7.078;2023-09-19T00:45:13;16.90;99.90
35613;DHT22;22054;51.646;7.078;2023-09-19T00:47:45;16.50;99.90
35613;DHT22;22054;51.646;7.078;2023-09-19T00:50:18;16.50;99.90
35613;DHT22;22054;51.646;7.078;2023-09-19T00:52:47;16.40;99.90
35613;DHT22;22054;51.646;7.078;2023-09-19T00:55:15;16.70;99.90
35613;DHT22;22054;51.646;7.078;2023-09-19T00:57:44;16.40;99.90
35613;DHT22;22054;51.646;7.078;2023-09-19T01:00:10;16.50;99.90
35613;DHT22;22054;51.646;7.078;2023-09-19T01:02:44;16.40;99.90
35613;DHT22;22054;51.646;7.078;2023-09-19T01:05:11;16.30;99.90
35613;DHT22;22054;51.646;7.078;2023-09-19T01:07:38;16.40;99.90
35613;DHT22;22054;51.646;7.078;2023-09-19T01:10:08;16.30;99.90
35613;DHT22;22054;51.646;7.078;2023-09-19T01:12:57;16.30;99.90
35613;DHT22;22054;51.646;7.078;2023-09-19T01:16:19;16.20;99.90
35613;DHT22;22054;51.646;7.078;2023-09-19T01:19:52;16.20;99.90
35613;DHT22;22054;51.646;7.078;2023-09-19T01:22:34;16.20;99.90
35613;DHT22;22054;51.646;7.078;2023-09-19T01:25:42;16.20;99.90
35613;DHT22;22054;51.646;7.078;2023-09-19T01:31:02;16.40;99.90
35613;DHT22;22054;51.646;7.078;2023-09-19T01:33:55;16.10;99.90
35613;DHT22;22054;51.646;7.078;2023-09-19T01:36:35;16.10;99.90
35613;DHT22;22054;51.646;7.078;2023-09-19T01:39:07;16.10;99.90
35613;DHT22;22054;51.646;7.078;2023-09-19T01:47:23;16.00;99.90
35613;DHT22;22054;51.646;7.078;2023-09-19T01:52:30;15.90;99.90
35613;DHT22;22054;51.646;7.078;2023-09-19T01:55:05;15.90;99.90
35613;DHT22;22054;51.646;7.078;2023-09-19T01:57:54;15.90;99.90
35613;DHT22;22054;51.646;7.078;2023-09-19T02:00:58;15.80;99.90
35613;DHT22;22054;51.646;7.078;2023-09-19T02:03:26;15.80;99.90
35613;DHT22;22054;51.646;7.078;2023-09-19T02:05:54;15.80;99.90
35613;DHT22;22054;51.646;7.078;2023-09-19T02:08:21;16.00;99.90
35613;DHT22;22054;51.646;7.078;2023-09-19T02:10:51;15.80;99.90
35613;DHT22;22054;51.646;7.078;2023-09-19T02:13:22;15.70;99.90
35613;DHT22;22054;51.646;7.078;2023-09-19T02:15:53;15.80;99.90
35613;DHT22;22054;51.646;7.078;2023-09-19T02:18:19;15.70;99.90
35613;DHT22;22054;51.646;7.078;2023-09-19T02:20:45;15.70;99.90
35613;DHT22;22054;51.646;7.078;2023-09-19T02:23:12;15.60;99.90
35613;DHT22;22054;51.646;7.078;2023-09-19T02:25:38;15.60;99.90
35613;DHT22;22054;51.646;7.078;2023-09-19T02:28:06;15.60;99.90
35613;DHT22;22054;51.646;7.078;2023-09-19T02:30:32;15.50;99.90
35613;DHT22;22054;51.646;7.078;2023-09-19T02:32:58;15.70;99.90
35613;DHT22;22054;51.646;7.078;2023-09-19T02:35:27;15.50;99.90
35613;DHT22;22054;51.646;7.078;2023-09-19T02:37:54;15.40;99.90
35613;DHT22;22054;51.646;7.078;2023-09-19T02:40:19;15.60;99.90
35613;DHT22;22054;51.646;7.078;2023-09-19T02:42:49;15.50;99.90
35613;DHT22;22054;51.646;7.078;2023-09-19T02:45:19;15.60;99.90
35613;DHT22;22054;51.646;7.078;2023-09-19T02:47:45;15.40;99.90
35613;DHT22;22054;51.646;7.078;2023-09-19T02:50:12;15.40;99.90
35613;DHT22;22054;51.646;7.078;2023-09-19T02:52:45;15.40;99.90
35613;DHT22;22054;51.646;7.078;2023-09-19T02:55:15;15.40;99.90
35613;DHT22;22054;51.646;7.078;2023-09-19T02:57:49;15.40;99.90
35613;DHT22;22054;51.646;7.078;2023-09-19T03:00:17;15.40;99.90
35613;DHT22;22054;51.646;7.078;2023-09-19T03:02:54;15.40;99.90
35613;DHT22;22054;51.646;7.078;2023-09-19T03:05:21;15.50;99.90
35613;DHT22;22054;51.646;7.078;2023-09-19T03:07:48;15.50;99.90
35613;DHT22;22054;51.646;7.078;2023-09-19T03:10:20;15.40;99.90
35613;DHT22;22054;51.646;7.078;2023-09-19T03:12:47;15.40;99.90
35613;DHT22;22054;51.646;7.078;2023-09-19T03:15:13;15.80;99.90
35613;DHT22;22054;51.646;7.078;2023-09-19T03:17:43;15.40;99.90
35613;DHT22;22054;51.646;7.078;2023-09-19T03:20:11;15.50;99.90
35613;DHT22;22054;51.646;7.078;2023-09-19T03:22:38;15.40;99.90
35613;DHT22;22054;51.646;7.078;2023-09-19T03:25:06;15.20;99.90
35613;DHT22;22054;51.646;7.078;2023-09-19T03:27:36;15.40;99.90
35613;DHT22;22054;51.646;7.078;2023-09-19T03:30:03;15.30;99.90
35613;DHT22;22054;51.646;7.078;2023-09-19T03:32:43;15.40;99.90
35613;DHT22;22054;51.646;7.078;2023-09-19T03:35:09;15.40;99.90
35613;DHT22;22054;51.646;7.078;2023-09-19T03:37:39;15.50;99.90
35613;DHT22;22054;51.646;7.078;2023-09-19T03:40:09;15.30;99.90
35613;DHT22;22054;51.646;7.078;2023-09-19T03:42:38;15.30;99.90
35613;DHT22;22054;51.646;7.078;2023-09-19T03:45:06;15.30;99.90
35613;DHT22;22054;51.646;7.078;2023-09-19T03:47:36;15.20;99.90
35613;DHT22;22054;51.646;7.078;2023-09-19T03:50:02;15.20;99.90
35613;DHT22;22054;51.646;7.078;2023-09-19T03:52:31;15.20;99.90
35613;DHT22;22054;51.646;7.078;2023-09-19T03:54:57;15.20;99.90
35613;DHT22;22054;51.646;7.078;2023-09-19T03:57:23;15.20;99.90
35613;DHT22;22054;51.646;7.078;2023-09-19T03:59:48;15.20;99.90
35613;DHT22;22054;51.646;7.078;2023-09-19T04:02:14;15.20;99.90
35613;DHT22;22054;51.646;7.078;2023-09-19T04:04:48;15.20;99.90
35613;DHT22;22054;51.646;7.078;2023-09-19T04:07:14;15.10;99.90
35613;DHT22;22054;51.646;7.078;2023-09-19T04:09:40;15.10;99.90
35613;DHT22;22054;51.646;7.078;2023-09-19T04:12:07;15.10;99.90
35613;DHT22;22054;51.646;7.078;2023-09-19T04:14:36;15.10;99.90
35613;DHT22;22054;51.646;7.078;2023-09-19T04:17:02;15.10;99.90
35613;DHT22;22054;51.646;7.078;2023-09-19T04:19:31;15.10;99.90
35613;DHT22;22054;51.646;7.078;2023-09-19T04:21:56;15.10;99.90
35613;DHT22;22054;51.646;7.078;2023-09-19T04:24:22;15.10;99.90
35613;DHT22;22054;51.646;7.078;2023-09-19T04:26:48;15.00;99.90
35613;DHT22;22054;51.646;7.078;2023-09-19T04:29:14;15.10;99.90
35613;DHT22;22054;51.646;7.078;2023-09-19T04:31:40;15.00;99.90
35613;DHT22;22054;51.646;7.078;2023-09-19T04:34:11;15.20;99.90
35613;DHT22;22054;51.646;7.078;2023-09-19T04:36:41;15.10;99.90
35613;DHT22;22054;51.646;7.078;2023-09-19T04:39:07;15.20;99.90
35613;DHT22;22054;51.646;7.078;2023-09-19T04:41:33;15.20;99.90
35613;DHT22;22054;51.646;7.078;2023-09-19T04:43:59;15.20;99.90
35613;DHT22;22054;51.646;7.078;2023-09-19T04:46:25;15.10;99.90
35613;DHT22;22054;51.646;7.078;2023-09-19T04:48:51;15.10;99.90
35613;DHT22;22054;51.646;7.078;2023-09-19T04:51:17;15.10;99.90
35613;DHT22;22054;51.646;7.078;2023-09-19T04:53:44;15.10;99.90
35613;DHT22;22054;51.646;7.078;2023-09-19T04:56:09;15.20;99.90
35613;DHT22;22054;51.646;7.078;2023-09-19T04:58:36;15.10;99.90
35613;DHT22;22054;51.646;7.078;2023-09-19T05:01:02;15.30;99.90
35613;DHT22;22054;51.646;7.078;2023-09-19T05:03:28;15.20;99.90
35613;DHT22;22054;51.646;7.078;2023-09-19T05:05:54;15.40;99.90
35613;DHT22;22054;51.646;7.078;2023-09-19T05:08:20;15.20;99.90
35613;DHT22;22054;51.646;7.078;2023-09-19T05:10:48;15.20;99.90
35613;DHT22;22054;51.646;7.078;2023-09-19T05:13:14;15.20;99.90
35613;DHT22;22054;51.646;7.078;2023-09-19T05:15:43;15.30;99.90
35613;DHT22;22054;51.646;7.078;2023-09-19T05:18:09;15.20;99.90
35613;DHT22;22054;51.646;7.078;2023-09-19T05:20:36;15.20;99.90
35613;DHT22;22054;51.646;7.078;2023-09-19T05:23:04;15.10;99.90
35613;DHT22;22054;51.646;7.078;2023-09-19T05:25:33;15.20;99.90
35613;DHT22;22054;51.646;7.078;2023-09-19T05:28:02;15.20;99.90
35613;DHT22;22054;51.646;7.078;2023-09-19T05:30:31;15.20;99.90
35613;DHT22;22054;51.646;7.078;2023-09-19T05:32:58;15.10;99.90
35613;DHT22;22054;51.646;7.078;2023-09-19T05:35:24;15.20;99.90
35613;DHT22;22054;51.646;7.078;2023-09-19T05:37:52;15.20;99.90
35613;DHT22;22054;51.646;7.078;2023-09-19T05:40:19;15.20;99.90
35613;DHT22;22054;51.646;7.078;2023-09-19T05:42:45;15.20;99.90
35613;DHT22;22054;51.646;7.078;2023-09-19T05:45:12;15.30;99.90
35613;DHT22;22054;51.646;7.078;2023-09-19T05:47:40;15.30;99.90
35613;DHT22;22054;51.646;7.078;2023-09-19T05:50:06;15.40;99.90
35613;DHT22;22054;51.646;7.078;2023-09-19T05:52:37;15.40;99.90
35613;DHT22;22054;51.646;7.078;2023-09-19T05:55:06;15.30;99.90
35613;DHT22;22054;51.646;7.078;2023-09-19T05:57:33;15.50;99.90
35613;DHT22;22054;51.646;7.078;2023-09-19T06:00:00;15.50;99.90
35613;DHT22;22054;51.646;7.078;2023-09-19T06:02:26;15.50;99.90
35613;DHT22;22054;51.646;7.078;2023-09-19T06:04:54;15.60;99.90
35613;DHT22;22054;51.646;7.078;2023-09-19T06:07:21;15.70;99.90
35613;DHT22;22054;51.646;7.078;2023-09-19T06:09:51;15.70;99.90
35613;DHT22;22054;51.646;7.078;2023-09-19T06:12:19;15.70;99.90
35613;DHT22;22054;51.646;7.078;2023-09-19T06:14:45;15.70;99.90
35613;DHT22;22054;51.646;7.078;2023-09-19T06:17:11;15.70;99.90
35613;DHT22;22054;51.646;7.078;2023-09-19T06:19:40;15.80;99.90
35613;DHT22;22054;51.646;7.078;2023-09-19T06:22:07;15.60;99.90
35613;DHT22;22054;51.646;7.078;2023-09-19T06:24:33;15.90;99.90
35613;DHT22;22054;51.646;7.078;2023-09-19T06:26:59;15.80;99.90
35613;DHT22;22054;51.646;7.078;2023-09-19T06:29:26;16.00;99.90
35613;DHT22;22054;51.646;7.078;2023-09-19T06:31:52;15.90;99.90
35613;DHT22;22054;51.646;7.078;2023-09-19T06:34:17;15.70;99.90
35613;DHT22;22054;51.646;7.078;2023-09-19T06:36:43;15.90;99.90
35613;DHT22;22054;51.646;7.078;2023-09-19T06:39:10;15.90;99.90
35613;DHT22;22054;51.646;7.078;2023-09-19T06:41:37;16.00;99.90
35613;DHT22;22054;51.646;7.078;2023-09-19T06:44:05;16.00;99.90
35613;DHT22;22054;51.646;7.078;2023-09-19T06:46:31;16.00;99.90
35613;DHT22;22054;51.646;7.078;2023-09-19T06:49:00;16.00;99.90
35613;DHT22;22054;51.646;7.078;2023-09-19T06:51:29;16.00;99.90
35613;DHT22;22054;51.646;7.078;2023-09-19T06:53:55;15.90;99.90
35613;DHT22;22054;51.646;7.078;2023-09-19T06:56:22;16.00;99.90
35613;DHT22;22054;51.646;7.078;2023-09-19T06:58:50;16.00;99.90
35613;DHT22;22054;51.646;7.078;2023-09-19T07:01:15;16.00;99.90
35613;DHT22;22054;51.646;7.078;2023-09-19T07:03:41;15.90;99.90
35613;DHT22;22054;51.646;7.078;2023-09-19T07:06:10;16.00;99.90
35613;DHT22;22054;51.646;7.078;2023-09-19T07:08:36;16.10;99.90
35613;DHT22;22054;51.646;7.078;2023-09-19T07:11:03;16.10;99.90
35613;DHT22;22054;51.646;7.078;2023-09-19T07:13:31;16.20;99.90
35613;DHT22;22054;51.646;7.078;2023-09-19T07:15:58;16.00;99.90
35613;DHT22;22054;51.646;7.078;2023-09-19T07:18:25;16.20;99.90
35613;DHT22;22054;51.646;7.078;2023-09-19T07:20:51;16.20;99.90
35613;DHT22;22054;51.646;7.078;2023-09-19T07:23:19;16.20;99.90
35613;DHT22;22054;51.646;7.078;2023-09-19T07:25:47;16.30;99.90
35613;DHT22;22054;51.646;7.078;2023-09-19T07:28:14;16.30;99.90
35613;DHT22;22054;51.646;7.078;2023-09-19T07:30:40;16.30;99.90
35613;DHT22;22054;51.646;7.078;2023-09-19T07:33:09;16.40;99.90
35613;DHT22;22054;51.646;7.078;2023-09-19T07:35:38;16.60;99.90
35613;DHT22;22054;51.646;7.078;2023-09-19T07:38:06;16.40;99.90
35613;DHT22;22054;51.646;7.078;2023-09-19T07:40:32;16.40;99.90
35613;DHT22;22054;51.646;7.078;2023-09-19T07:42:58;16.60;99.90
35613;DHT22;22054;51.646;7.078;2023-09-19T07:45:31;16.60;99.90
35613;DHT22;22054;51.646;7.078;2023-09-19T07:47:57;16.40;99.90
35613;DHT22;22054;51.646;7.078;2023-09-19T07:50:23;16.40;99.90
35613;DHT22;22054;51.646;7.078;2023-09-19T07:52:50;16.50;99.90
35613;DHT22;22054;51.646;7.078;2023-09-19T07:55:17;16.50;99.90
35613;DHT22;22054;51.646;7.078;2023-09-19T07:57:43;16.40;99.90
35613;DHT22;22054;51.646;7.078;2023-09-19T08:00:10;16.50;99.90
35613;DHT22;22054;51.646;7.078;2023-09-19T08:02:36;16.60;99.90
35613;DHT22;22054;51.646;7.078;2023-09-19T08:05:07;16.60;99.90
35613;DHT22;22054;51.646;7.078;2023-09-19T08:07:41;16.70;99.90
35613;DHT22;22054;51.646;7.078;2023-09-19T08:10:11;16.70;99.90
35613;DHT22;22054;51.646;7.078;2023-09-19T08:12:43;16.80;99.90
35613;DHT22;22054;51.646;7.078;2023-09-19T08:15:16;16.80;99.90
35613;DHT22;22054;51.646;7.078;2023-09-19T08:17:47;16.90;99.90
35613;DHT22;22054;51.646;7.078;2023-09-19T08:20:15;16.90;99.90
35613;DHT22;22054;51.646;7.078;2023-09-19T08:22:51;17.10;99.90
35613;DHT22;22054;51.646;7.078;2023-09-19T08:25:21;17.10;99.90
35613;DHT22;22054;51.646;7.078;2023-09-19T08:27:48;17.00;99.90
35613;DHT22;22054;51.646;7.078;2023-09-19T08:30:16;17.10;99.90
35613;DHT22;22054;51.646;7.078;2023-09-19T08:32:43;17.20;99.90
35613;DHT22;22054;51.646;7.078;2023-09-19T08:35:11;17.20;99.90
35613;DHT22;22054;51.646;7.078;2023-09-19T08:37:37;17.10;99.90
35613;DHT22;22054;51.646;7.078;2023-09-19T08:40:04;17.20;99.90
35613;DHT22;22054;51.646;7.078;2023-09-19T08:42:51;17.20;99.90
35613;DHT22;22054;51.646;7.078;2023-09-19T08:45:20;17.40;99.90
35613;DHT22;22054;51.646;7.078;2023-09-19T08:51:06;17.70;99.90
35613;DHT22;22054;51.646;7.078;2023-09-19T08:53:42;17.70;99.90
35613;DHT22;22054;51.646;7.078;2023-09-19T08:56:17;18.00;99.90
35613;DHT22;22054;51.646;7.078;2023-09-19T08:59:16;18.00;99.90
35613;DHT22;22054;51.646;7.078;2023-09-19T09:01:43;18.10;99.90
35613;DHT22;22054;51.646;7.078;2023-09-19T09:04:09;18.00;99.90
35613;DHT22;22054;51.646;7.078;2023-09-19T09:06:38;17.90;99.90
35613;DHT22;22054;51.646;7.078;2023-09-19T09:09:06;18.00;99.90
35613;DHT22;22054;51.646;7.078;2023-09-19T09:11:33;18.00;99.90
35613;DHT22;22054;51.646;7.078;2023-09-19T09:13:59;17.90;99.90
35613;DHT22;22054;51.646;7.078;2023-09-19T09:16:25;17.90;99.90
35613;DHT22;22054;51.646;7.078;2023-09-19T09:18:51;17.90;99.90
35613;DHT22;22054;51.646;7.078;2023-09-19T09:21:20;17.80;99.90
35613;DHT22;22054;51.646;7.078;2023-09-19T09:23:47;17.90;99.90
35613;DHT22;22054;51.646;7.078;2023-09-19T09:26:15;18.30;99.90
35613;DHT22;22054;51.646;7.078;2023-09-19T09:28:45;18.00;99.90
35613;DHT22;22054;51.646;7.078;2023-09-19T09:31:23;18.40;99.90
35613;DHT22;22054;51.646;7.078;2023-09-19T09:33:54;18.50;99.90
35613;DHT22;22054;51.646;7.078;2023-09-19T09:36:40;18.60;99.90
35613;DHT22;22054;51.646;7.078;2023-09-19T09:39:07;18.70;99.90
35613;DHT22;22054;51.646;7.078;2023-09-19T09:41:50;18.60;99.90
35613;DHT22;22054;51.646;7.078;2023-09-19T09:44:17;18.30;99.90
35613;DHT22;22054;51.646;7.078;2023-09-19T09:46:45;18.70;99.90
35613;DHT22;22054;51.646;7.078;2023-09-19T09:49:24;18.90;99.90
35613;DHT22;22054;51.646;7.078;2023-09-19T09:52:02;19.00;99.90
35613;DHT22;22054;51.646;7.078;2023-09-19T09:55:00;19.00;99.90
35613;DHT22;22054;51.646;7.078;2023-09-19T09:57:31;19.00;99.90
35613;DHT22;22054;51.646;7.078;2023-09-19T09:59:58;18.90;99.90
35613;DHT22;22054;51.646;7.078;2023-09-19T10:02:40;18.70;99.90
35613;DHT22;22054;51.646;7.078;2023-09-19T10:05:14;18.70;99.90
35613;DHT22;22054;51.646;7.078;2023-09-19T10:07:50;18.80;99.90
35613;DHT22;22054;51.646;7.078;2023-09-19T10:10:35;19.00;99.90
35613;DHT22;22054;51.646;7.078;2023-09-19T10:13:14;19.00;99.90
35613;DHT22;22054;51.646;7.078;2023-09-19T10:15:44;19.40;99.90
35613;DHT22;22054;51.646;7.078;2023-09-19T10:18:26;19.50;99.90
35613;DHT22;22054;51.646;7.078;2023-09-19T10:20:55;19.30;99.90
35613;DHT22;22054;51.646;7.078;2023-09-19T10:23:22;19.20;99.90
35613;DHT22;22054;51.646;7.078;2023-09-19T10:25:49;19.30;99.90
35613;DHT22;22054;51.646;7.078;2023-09-19T10:28:17;19.50;99.90
35613;DHT22;22054;51.646;7.078;2023-09-19T10:30:48;19.80;99.90
35613;DHT22;22054;51.646;7.078;2023-09-19T10:33:22;19.50;99.90
35613;DHT22;22054;51.646;7.078;2023-09-19T10:35:53;19.30;99.90
35613;DHT22;22054;51.646;7.078;2023-09-19T10:38:26;19.40;99.90
35613;DHT22;22054;51.646;7.078;2023-09-19T10:40:56;19.60;99.90
35613;DHT22;22054;51.646;7.078;2023-09-19T10:43:30;19.60;99.90
35613;DHT22;22054;51.646;7.078;2023-09-19T10:46:03;19.40;99.90
35613;DHT22;22054;51.646;7.078;2023-09-19T10:48:39;19.70;99.90
35613;DHT22;22054;51.646;7.078;2023-09-19T10:51:16;20.10;99.90
35613;DHT22;22054;51.646;7.078;2023-09-19T10:53:49;20.50;99.90
35613;DHT22;22054;51.646;7.078;2023-09-19T10:56:52;20.50;99.90
35613;DHT22;22054;51.646;7.078;2023-09-19T10:59:16;20.50;99.90
35613;DHT22;22054;51.646;7.078;2023-09-19T11:01:56;21.30;99.90
35613;DHT22;22054;51.646;7.078;2023-09-19T11:04:33;21.80;99.90
35613;DHT22;22054;51.646;7.078;2023-09-19T11:14:57;22.70;99.90
35613;DHT22;22054;51.646;7.078;2023-09-19T11:17:34;22.20;99.90
35613;DHT22;22054;51.646;7.078;2023-09-19T11:30:39;22.30;99.90
35613;DHT22;22054;51.646;7.078;2023-09-19T11:33:28;23.00;99.90
35613;DHT22;22054;51.646;7.078;2023-09-19T11:36:08;23.10;99.90
35613;DHT22;22054;51.646;7.078;2023-09-19T11:46:30;23.30;99.90
35613;DHT22;22054;51.646;7.078;2023-09-19T11:49:06;22.80;99.90
35613;DHT22;22054;51.646;7.078;2023-09-19T11:51:43;22.50;99.90
35613;DHT22;22054;51.646;7.078;2023-09-19T11:54:11;22.10;99.90
35613;DHT22;22054;51.646;7.078;2023-09-19T11:56:43;21.80;99.90
35613;DHT22;22054;51.646;7.078;2023-09-19T11:59:11;21.90;99.90
35613;DHT22;22054;51.646;7.078;2023-09-19T12:01:40;22.30;99.90
35613;DHT22;22054;51.646;7.078;2023-09-19T12:04:11;22.50;99.90
35613;DHT22;22054;51.646;7.078;2023-09-19T12:06:38;22.40;99.90
35613;DHT22;22054;51.646;7.078;2023-09-19T12:09:13;22.60;99.90
35613;DHT22;22054;51.646;7.078;2023-09-19T12:11:42;22.90;99.90
35613;DHT22;22054;51.646;7.078;2023-09-19T12:14:11;22.80;99.90
35613;DHT22;22054;51.646;7.078;2023-09-19T12:16:57;22.80;99.90
35613;DHT22;22054;51.646;7.078;2023-09-19T12:19:26;23.00;99.90
35613;DHT22;22054;51.646;7.078;2023-09-19T12:21:56;24.00;99.90
35613;DHT22;22054;51.646;7.078;2023-09-19T12:24:24;24.10;98.50
35613;DHT22;22054;51.646;7.078;2023-09-19T12:27:03;24.00;98.40
35613;DHT22;22054;51.646;7.078;2023-09-19T12:29:31;24.00;97.50
35613;DHT22;22054;51.646;7.078;2023-09-19T12:31:59;24.50;97.60
35613;DHT22;22054;51.646;7.078;2023-09-19T12:34:30;23.70;97.00
35613;DHT22;22054;51.646;7.078;2023-09-19T12:39:50;24.50;97.50
35613;DHT22;22054;51.646;7.078;2023-09-19T12:42:23;25.40;95.70
35613;DHT22;22054;51.646;7.078;2023-09-19T12:44:54;24.50;94.30
35613;DHT22;22054;51.646;7.078;2023-09-19T12:47:23;23.80;96.30
35613;DHT22;22054;51.646;7.078;2023-09-19T12:50:12;24.30;95.90
35613;DHT22;22054;51.646;7.078;2023-09-19T12:52:40;24.90;94.40
35613;DHT22;22054;51.646;7.078;2023-09-19T12:55:18;24.50;93.80
35613;DHT22;22054;51.646;7.078;2023-09-19T12:57:56;24.40;94.00
35613;DHT22;22054;51.646;7.078;2023-09-19T13:00:35;24.80;94.00
35613;DHT22;22054;51.646;7.078;2023-09-19T13:03:25;25.80;92.30
35613;DHT22;22054;51.646;7.078;2023-09-19T13:05:59;25.80;91.00
35613;DHT22;22054;51.646;7.078;2023-09-19T13:08:35;24.70;90.80
35613;DHT22;22054;51.646;7.078;2023-09-19T13:11:09;24.90;91.50
35613;DHT22;22054;51.646;7.078;2023-09-19T13:16:21;25.10;91.60
35613;DHT22;22054;51.646;7.078;2023-09-19T13:18:55;25.50;89.70
35613;DHT22;22054;51.646;7.078;2023-09-19T13:21:32;26.00;90.30
35613;DHT22;22054;51.646;7.078;2023-09-19T13:24:21;24.60;90.20
35613;DHT22;22054;51.646;7.078;2023-09-19T13:26:53;24.40;91.20
35613;DHT22;22054;51.646;7.078;2023-09-19T13:29:19;24.60;91.60
35613;DHT22;22054;51.646;7.078;2023-09-19T13:31:50;24.80;91.50
35613;DHT22;22054;51.646;7.078;2023-09-19T13:34:18;25.10;90.80
35613;DHT22;22054;51.646;7.078;2023-09-19T13:36:45;25.70;89.20
35613;DHT22;22054;51.646;7.078;2023-09-19T13:39:17;25.50;90.00
35613;DHT22;22054;51.646;7.078;2023-09-19T13:41:47;25.30;89.80
35613;DHT22;22054;51.646;7.078;2023-09-19T13:44:14;24.90;90.40
35613;DHT22;22054;51.646;7.078;2023-09-19T13:46:40;24.90;90.30
35613;DHT22;22054;51.646;7.078;2023-09-19T13:49:08;25.00;90.30
35613;DHT22;22054;51.646;7.078;2023-09-19T13:51:35;24.40;90.60
35613;DHT22;22054;51.646;7.078;2023-09-19T13:54:00;23.70;92.00
35613;DHT22;22054;51.646;7.078;2023-09-19T13:56:26;22.80;94.00
35613;DHT22;22054;51.646;7.078;2023-09-19T13:58:56;22.00;95.50
35613;DHT22;22054;51.646;7.078;2023-09-19T14:01:22;21.40;97.10
35613;DHT22;22054;51.646;7.078;2023-09-19T14:03:49;21.00;98.70
35613;DHT22;22054;51.646;7.078;2023-09-19T14:06:17;20.90;99.50
35613;DHT22;22054;51.646;7.078;2023-09-19T14:08:44;20.90;99.90
35613;DHT22;22054;51.646;7.078;2023-09-19T14:11:13;21.20;99.90
35613;DHT22;22054;51.646;7.078;2023-09-19T14:13:43;21.40;99.90
35613;DHT22;22054;51.646;7.078;2023-09-19T14:16:13;21.20;99.90
35613;DHT22;22054;51.646;7.078;2023-09-19T14:18:41;21.00;99.90
35613;DHT22;22054;51.646;7.078;2023-09-19T14:21:07;20.90;99.90
35613;DHT22;22054;51.646;7.078;2023-09-19T14:23:37;20.80;99.90
35613;DHT22;22054;51.646;7.078;2023-09-19T14:26:06;20.90;99.90
35613;DHT22;22054;51.646;7.078;2023-09-19T14:28:33;20.70;99.90
35613;DHT22;22054;51.646;7.078;2023-09-19T14:31:13;20.70;99.90
35613;DHT22;22054;51.646;7.078;2023-09-19T14:33:38;20.50;99.90
35613;DHT22;22054;51.646;7.078;2023-09-19T14:36:08;20.80;99.90
35613;DHT22;22054;51.646;7.078;2023-09-19T14:38:36;20.50;99.90
35613;DHT22;22054;51.646;7.078;2023-09-19T14:41:05;20.40;99.90
35613;DHT22;22054;51.646;7.078;2023-09-19T14:43:31;20.50;99.90
35613;DHT22;22054;51.646;7.078;2023-09-19T14:46:05;20.50;99.90
35613;DHT22;22054;51.646;7.078;2023-09-19T14:48:39;20.40;99.90
35613;DHT22;22054;51.646;7.078;2023-09-19T14:51:06;20.60;99.90
35613;DHT22;22054;51.646;7.078;2023-09-19T14:53:35;20.40;99.90
35613;DHT22;22054;51.646;7.078;2023-09-19T14:56:04;20.40;99.90
35613;DHT22;22054;51.646;7.078;2023-09-19T14:58:33;20.20;99.90
35613;DHT22;22054;51.646;7.078;2023-09-19T15:01:17;20.30;99.90
35613;DHT22;22054;51.646;7.078;2023-09-19T15:03:43;20.30;99.90
35613;DHT22;22054;51.646;7.078;2023-09-19T15:06:10;20.40;99.90
35613;DHT22;22054;51.646;7.078;2023-09-19T15:08:45;20.80;99.90
35613;DHT22;22054;51.646;7.078;2023-09-19T15:11:19;20.90;99.90
35613;DHT22;22054;51.646;7.078;2023-09-19T15:13:47;20.80;99.90
35613;DHT22;22054;51.646;7.078;2023-09-19T15:16:14;20.60;99.90
35613;DHT22;22054;51.646;7.078;2023-09-19T15:18:41;20.50;99.90
35613;DHT22;22054;51.646;7.078;2023-09-19T15:21:09;21.10;99.90
35613;DHT22;22054;51.646;7.078;2023-09-19T15:23:36;21.80;99.90
35613;DHT22;22054;51.646;7.078;2023-09-19T15:26:14;21.70;99.90
35613;DHT22;22054;51.646;7.078;2023-09-19T15:28:42;21.60;99.90
35613;DHT22;22054;51.646;7.078;2023-09-19T15:31:10;21.80;99.90
35613;DHT22;22054;51.646;7.078;2023-09-19T15:33:37;21.70;99.90
35613;DHT22;22054;51.646;7.078;2023-09-19T15:36:07;21.50;99.90
35613;DHT22;22054;51.646;7.078;2023-09-19T15:41:41;21.50;99.90
35613;DHT22;22054;51.646;7.078;2023-09-19T15:44:15;21.80;99.90
35613;DHT22;22054;51.646;7.078;2023-09-19T15:46:44;21.60;99.90
35613;DHT22;22054;51.646;7.078;2023-09-19T15:49:11;21.40;99.90
35613;DHT22;22054;51.646;7.078;2023-09-19T15:51:37;21.20;99.90
35613;DHT22;22054;51.646;7.078;2023-09-19T15:54:11;20.90;99.90
35613;DHT22;22054;51.646;7.078;2023-09-19T15:56:44;20.60;99.90
35613;DHT22;22054;51.646;7.078;2023-09-19T15:59:12;20.40;99.90
35613;DHT22;22054;51.646;7.078;2023-09-19T16:01:39;20.30;99.90
35613;DHT22;22054;51.646;7.078;2023-09-19T16:04:11;20.20;99.90
35613;DHT22;22054;51.646;7.078;2023-09-19T16:06:38;20.10;99.90
35613;DHT22;22054;51.646;7.078;2023-09-19T16:09:04;20.10;99.90
35613;DHT22;22054;51.646;7.078;2023-09-19T16:11:34;20.00;99.90
35613;DHT22;22054;51.646;7.078;2023-09-19T16:14:04;20.00;99.90
35613;DHT22;22054;51.646;7.078;2023-09-19T16:16:31;19.90;99.90
35613;DHT22;22054;51.646;7.078;2023-09-19T16:19:01;19.90;99.90
35613;DHT22;22054;51.646;7.078;2023-09-19T16:21:28;20.00;99.90
35613;DHT22;22054;51.646;7.078;2023-09-19T16:23:56;20.10;99.90
35613;DHT22;22054;51.646;7.078;2023-09-19T16:26:24;19.90;99.90
35613;DHT22;22054;51.646;7.078;2023-09-19T16:28:52;20.00;99.90
35613;DHT22;22054;51.646;7.078;2023-09-19T16:31:19;19.70;99.90
35613;DHT22;22054;51.646;7.078;2023-09-19T16:33:46;19.80;99.90
35613;DHT22;22054;51.646;7.078;2023-09-19T16:36:15;19.90;99.90
35613;DHT22;22054;51.646;7.078;2023-09-19T16:38:43;19.60;99.90